sensor_id;sensor_type;location;lat;lon;timestamp;temperature;humidity
39079;DHT22;24829;49.208;12.080;2023-10-19T00:01:58;7.10;99.90
39079;DHT22;24829;49.208;12.080;2023-10-19T00:04:27;7.10;99.90
39079;DHT22;24829;49.208;12.080;2023-10-19T00:06:58;7.20;99.90
39079;DHT22;24829;49.208;12.080;2023-10-19T00:09:23;7.20;99.90
39079;DHT22;24829;49.208;12.080;2023-10-19T00:11:50;7.10;99.90
39079;DHT22;24829;49.208;12.080;2023-10-19T00:14:17;7.10;99.90
39079;DHT22;24829;49.208;12.080;2023-10-19T00:16:44;7.00;99.90
39079;DHT22;24829;49.208;12.080;2023-10-19T00:19:16;7.00;99.90
39079;DHT22;24829;49.208;12.080;2023-10-19T00:21:45;7.00;99.90
39079;DHT22;24829;49.208;12.080;2023-10-19T00:24:20;6.90;99.90
39079;DHT22;24829;49.208;12.080;2023-10-19T00:26:48;6.90;99.90
39079;DHT22;24829;49.208;12.080;2023-10-19T00:29:14;6.90;99.90
39079;DHT22;24829;49.208;12.080;2023-10-19T00:31:56;6.90;99.90
39079;DHT22;24829;49.208;12.080;2023-10-19T00:34:23;6.90;99.90
39079;DHT22;24829;49.208;12.080;2023-10-19T00:36:49;6.90;99.90
39079;DHT22;24829;49.208;12.080;2023-10-19T00:39:16;6.80;99.90
39079;DHT22;24829;49.208;12.080;2023-10-19T00:41:46;6.90;99.90
39079;DHT22;24829;49.208;12.080;2023-10-19T00:44:13;6.80;99.90
39079;DHT22;24829;49.208;12.080;2023-10-19T00:46:48;6.80;99.90
39079;DHT22;24829;49.208;12.080;2023-10-19T00:49:29;6.90;99.90
39079;DHT22;24829;49.208;12.080;2023-10-19T00:51:58;6.90;99.90
39079;DHT22;24829;49.208;12.080;2023-10-19T00:54:38;6.80;99.90
39079;DHT22;24829;49.208;12.080;2023-10-19T00:57:25;7.00;99.90
39079;DHT22;24829;49.208;12.080;2023-10-19T01:00:02;6.90;99.90
39079;DHT22;24829;49.208;12.080;2023-10-19T01:02:40;7.00;99.90
39079;DHT22;24829;49.208;12.080;2023-10-19T01:05:10;7.00;99.90
39079;DHT22;24829;49.208;12.080;2023-10-19T01:07:39;7.00;99.90
39079;DHT22;24829;49.208;12.080;2023-10-19T01:10:06;7.00;99.90
39079;DHT22;24829;49.208;12.080;2023-10-19T01:12:38;7.10;99.90
39079;DHT22;24829;49.208;12.080;2023-10-19T01:17:46;7.00;99.90
39079;DHT22;24829;49.208;12.080;2023-10-19T01:20:20;6.90;99.90
39079;DHT22;24829;49.208;12.080;2023-10-19T01:23:07;6.90;99.90
39079;DHT22;24829;49.208;12.080;2023-10-19T01:25:54;6.80;99.90
39079;DHT22;24829;49.208;12.080;2023-10-19T01:28:30;6.80;99.90
39079;DHT22;24829;49.208;12.080;2023-10-19T01:31:23;6.90;99.90
39079;DHT22;24829;49.208;12.080;2023-10-19T01:33:58;6.80;99.90
39079;DHT22;24829;49.208;12.080;2023-10-19T01:36:25;6.80;99.90
39079;DHT22;24829;49.208;12.080;2023-10-19T01:38:54;6.80;99.90
39079;DHT22;24829;49.208;12.080;2023-10-19T01:41:22;6.80;99.90
39079;DHT22;24829;49.208;12.080;2023-10-19T01:43:49;6.80;99.90
39079;DHT22;24829;49.208;12.080;2023-10-19T01:46:17;6.80;99.90
39079;DHT22;24829;49.208;12.080;2023-10-19T01:48:51;6.80;99.90
39079;DHT22;24829;49.208;12.080;2023-10-19T01:51:25;6.80;99.90
39079;DHT22;24829;49.208;12.080;2023-10-19T01:53:52;6.80;99.90
39079;DHT22;24829;49.208;12.080;2023-10-19T01:56:18;6.80;99.90
39079;DHT22;24829;49.208;12.080;2023-10-19T01:58:46;6.80;99.90
39079;DHT22;24829;49.208;12.080;2023-10-19T02:01:13;6.90;99.90
39079;DHT22;24829;49.208;12.080;2023-10-19T02:03:41;7.00;99.90
39079;DHT22;24829;49.208;12.080;2023-10-19T02:06:08;6.90;99.90
39079;DHT22;24829;49.208;12.080;2023-10-19T02:08:55;6.90;99.90
39079;DHT22;24829;49.208;12.080;2023-10-19T02:11:25;7.00;99.90
39079;DHT22;24829;49.208;12.080;2023-10-19T02:13:54;6.90;99.90
39079;DHT22;24829;49.208;12.080;2023-10-19T02:16:21;6.90;99.90
39079;DHT22;24829;49.208;12.080;2023-10-19T02:18:55;6.90;99.90
39079;DHT22;24829;49.208;12.080;2023-10-19T02:21:20;6.90;99.90
39079;DHT22;24829;49.208;12.080;2023-10-19T02:23:52;6.90;99.90
39079;DHT22;24829;49.208;12.080;2023-10-19T02:26:19;6.90;99.90
39079;DHT22;24829;49.208;12.080;2023-10-19T02:28:56;6.90;99.90
39079;DHT22;24829;49.208;12.080;2023-10-19T02:31:22;6.90;99.90
39079;DHT22;24829;49.208;12.080;2023-10-19T02:33:53;6.90;99.90
39079;DHT22;24829;49.208;12.080;2023-10-19T02:36:25;6.90;99.90
39079;DHT22;24829;49.208;12.080;2023-10-19T02:38:54;6.90;99.90
39079;DHT22;24829;49.208;12.080;2023-10-19T02:41:20;6.90;99.90
39079;DHT22;24829;49.208;12.080;2023-10-19T02:43:47;6.90;99.90
39079;DHT22;24829;49.208;12.080;2023-10-19T02:46:17;6.90;99.90
39079;DHT22;24829;49.208;12.080;2023-10-19T02:48:43;6.80;99.90
39079;DHT22;24829;49.208;12.080;2023-10-19T02:51:11;6.80;99.90
39079;DHT22;24829;49.208;12.080;2023-10-19T02:53:40;6.70;99.90
39079;DHT22;24829;49.208;12.080;2023-10-19T02:56:13;6.70;99.90
39079;DHT22;24829;49.208;12.080;2023-10-19T02:58:44;6.60;99.90
39079;DHT22;24829;49.208;12.080;2023-10-19T03:01:15;6.50;99.90
39079;DHT22;24829;49.208;12.080;2023-10-19T03:03:43;6.50;99.90
39079;DHT22;24829;49.208;12.080;2023-10-19T03:06:09;6.50;99.90
39079;DHT22;24829;49.208;12.080;2023-10-19T03:08:35;6.40;99.90
39079;DHT22;24829;49.208;12.080;2023-10-19T03:11:01;6.50;99.90
39079;DHT22;24829;49.208;12.080;2023-10-19T03:13:29;6.50;99.90
39079;DHT22;24829;49.208;12.080;2023-10-19T03:15:58;6.50;99.90
39079;DHT22;24829;49.208;12.080;2023-10-19T03:18:24;6.50;99.90
39079;DHT22;24829;49.208;12.080;2023-10-19T03:20:51;6.60;99.90
39079;DHT22;24829;49.208;12.080;2023-10-19T03:23:17;6.60;99.90
39079;DHT22;24829;49.208;12.080;2023-10-19T03:25:42;6.70;99.90
39079;DHT22;24829;49.208;12.080;2023-10-19T03:28:26;6.70;99.90
39079;DHT22;24829;49.208;12.080;2023-10-19T03:30:52;6.70;99.90
39079;DHT22;24829;49.208;12.080;2023-10-19T03:33:20;6.70;99.90
39079;DHT22;24829;49.208;12.080;2023-10-19T03:35:49;6.70;99.90
39079;DHT22;24829;49.208;12.080;2023-10-19T03:38:17;6.70;99.90
39079;DHT22;24829;49.208;12.080;2023-10-19T03:40:44;6.80;99.90
39079;DHT22;24829;49.208;12.080;2023-10-19T03:43:17;6.80;99.90
39079;DHT22;24829;49.208;12.080;2023-10-19T03:45:47;6.80;99.90
39079;DHT22;24829;49.208;12.080;2023-10-19T03:48:18;6.80;99.90
39079;DHT22;24829;49.208;12.080;2023-10-19T03:50:55;6.80;99.90
39079;DHT22;24829;49.208;12.080;2023-10-19T03:53:22;6.80;99.90
39079;DHT22;24829;49.208;12.080;2023-10-19T03:55:48;6.80;99.90
39079;DHT22;24829;49.208;12.080;2023-10-19T03:58:16;6.80;99.90
39079;DHT22;24829;49.208;12.080;2023-10-19T04:00:41;6.80;99.90
39079;DHT22;24829;49.208;12.080;2023-10-19T04:03:07;6.80;99.90
39079;DHT22;24829;49.208;12.080;2023-10-19T04:05:33;6.80;99.90
39079;DHT22;24829;49.208;12.080;2023-10-19T04:08:07;6.70;99.90
39079;DHT22;24829;49.208;12.080;2023-10-19T04:10:40;6.70;99.90
39079;DHT22;24829;49.208;12.080;2023-10-19T04:13:13;6.80;99.90
39079;DHT22;24829;49.208;12.080;2023-10-19T04:15:42;6.70;99.90
39079;DHT22;24829;49.208;12.080;2023-10-19T04:18:07;6.70;99.90
39079;DHT22;24829;49.208;12.080;2023-10-19T04:20:37;6.70;99.90
39079;DHT22;24829;49.208;12.080;2023-10-19T04:23:08;6.70;99.90
39079;DHT22;24829;49.208;12.080;2023-10-19T04:25:39;6.80;99.90
39079;DHT22;24829;49.208;12.080;2023-10-19T04:28:05;6.80;99.90
39079;DHT22;24829;49.208;12.080;2023-10-19T04:30:31;6.80;99.90
39079;DHT22;24829;49.208;12.080;2023-10-19T04:32:58;6.70;99.90
39079;DHT22;24829;49.208;12.080;2023-10-19T04:35:24;6.70;99.90
39079;DHT22;24829;49.208;12.080;2023-10-19T04:37:55;6.70;99.90
39079;DHT22;24829;49.208;12.080;2023-10-19T04:40:22;6.70;99.90
39079;DHT22;24829;49.208;12.080;2023-10-19T04:42:50;6.70;99.90
39079;DHT22;24829;49.208;12.080;2023-10-19T04:45:16;6.70;99.90
39079;DHT22;24829;49.208;12.080;2023-10-19T04:47:42;6.70;99.90
39079;DHT22;24829;49.208;12.080;2023-10-19T04:50:08;6.70;99.90
39079;DHT22;24829;49.208;12.080;2023-10-19T04:52:36;6.70;99.90
39079;DHT22;24829;49.208;12.080;2023-10-19T04:55:02;6.70;99.90
39079;DHT22;24829;49.208;12.080;2023-10-19T04:57:28;6.70;99.90
39079;DHT22;24829;49.208;12.080;2023-10-19T04:59:54;6.70;99.90
39079;DHT22;24829;49.208;12.080;2023-10-19T05:02:20;6.70;99.90
39079;DHT22;24829;49.208;12.080;2023-10-19T05:04:46;6.80;99.90
39079;DHT22;24829;49.208;12.080;2023-10-19T05:07:12;6.80;99.90
39079;DHT22;24829;49.208;12.080;2023-10-19T05:09:40;6.80;99.90
39079;DHT22;24829;49.208;12.080;2023-10-19T05:12:06;6.80;99.90
39079;DHT22;24829;49.208;12.080;2023-10-19T05:14:38;6.80;99.90
39079;DHT22;24829;49.208;12.080;2023-10-19T05:17:04;6.80;99.90
39079;DHT22;24829;49.208;12.080;2023-10-19T05:19:33;6.80;99.90
39079;DHT22;24829;49.208;12.080;2023-10-19T05:22:04;6.80;99.90
39079;DHT22;24829;49.208;12.080;2023-10-19T05:24:31;6.90;99.90
39079;DHT22;24829;49.208;12.080;2023-10-19T05:26:57;6.90;99.90
39079;DHT22;24829;49.208;12.080;2023-10-19T05:29:23;6.90;99.90
39079;DHT22;24829;49.208;12.080;2023-10-19T05:31:52;6.90;99.90
39079;DHT22;24829;49.208;12.080;2023-10-19T05:34:26;6.90;99.90
39079;DHT22;24829;49.208;12.080;2023-10-19T05:36:56;6.90;99.90
39079;DHT22;24829;49.208;12.080;2023-10-19T05:39:24;6.90;99.90
39079;DHT22;24829;49.208;12.080;2023-10-19T05:41:54;6.90;99.90
39079;DHT22;24829;49.208;12.080;2023-10-19T05:44:19;6.90;99.90
39079;DHT22;24829;49.208;12.080;2023-10-19T05:46:45;6.90;99.90
39079;DHT22;24829;49.208;12.080;2023-10-19T05:49:12;6.90;99.90
39079;DHT22;24829;49.208;12.080;2023-10-19T05:51:38;6.90;99.90
39079;DHT22;24829;49.208;12.080;2023-10-19T05:54:04;7.00;99.90
39079;DHT22;24829;49.208;12.080;2023-10-19T05:56:30;7.00;99.90
39079;DHT22;24829;49.208;12.080;2023-10-19T05:58:56;7.00;99.90
39079;DHT22;24829;49.208;12.080;2023-10-19T06:01:22;7.00;99.90
39079;DHT22;24829;49.208;12.080;2023-10-19T06:03:48;6.90;99.90
39079;DHT22;24829;49.208;12.080;2023-10-19T06:06:13;6.90;99.90
39079;DHT22;24829;49.208;12.080;2023-10-19T06:08:40;6.90;99.90
39079;DHT22;24829;49.208;12.080;2023-10-19T06:11:06;6.90;99.90
39079;DHT22;24829;49.208;12.080;2023-10-19T06:13:32;6.80;99.90
39079;DHT22;24829;49.208;12.080;2023-10-19T06:15:57;6.80;99.90
39079;DHT22;24829;49.208;12.080;2023-10-19T06:18:23;6.80;99.90
39079;DHT22;24829;49.208;12.080;2023-10-19T06:20:48;6.80;99.90
39079;DHT22;24829;49.208;12.080;2023-10-19T06:23:16;6.90;99.90
39079;DHT22;24829;49.208;12.080;2023-10-19T06:25:42;6.80;99.90
39079;DHT22;24829;49.208;12.080;2023-10-19T06:28:08;6.70;99.90
39079;DHT22;24829;49.208;12.080;2023-10-19T06:30:34;6.70;99.90
39079;DHT22;24829;49.208;12.080;2023-10-19T06:33:00;6.60;99.90
39079;DHT22;24829;49.208;12.080;2023-10-19T06:35:27;6.70;99.90
39079;DHT22;24829;49.208;12.080;2023-10-19T06:37:54;6.70;99.90
39079;DHT22;24829;49.208;12.080;2023-10-19T06:40:24;6.70;99.90
39079;DHT22;24829;49.208;12.080;2023-10-19T06:42:50;6.80;99.90
39079;DHT22;24829;49.208;12.080;2023-10-19T06:45:17;6.90;99.90
39079;DHT22;24829;49.208;12.080;2023-10-19T06:47:45;6.90;99.90
39079;DHT22;24829;49.208;12.080;2023-10-19T06:50:16;7.00;99.90
39079;DHT22;24829;49.208;12.080;2023-10-19T06:52:44;7.10;99.90
39079;DHT22;24829;49.208;12.080;2023-10-19T06:55:11;7.20;99.90
39079;DHT22;24829;49.208;12.080;2023-10-19T06:57:41;7.30;99.90
39079;DHT22;24829;49.208;12.080;2023-10-19T07:00:12;7.40;99.90
39079;DHT22;24829;49.208;12.080;2023-10-19T07:02:56;7.50;99.90
39079;DHT22;24829;49.208;12.080;2023-10-19T07:05:22;7.70;99.90
39079;DHT22;24829;49.208;12.080;2023-10-19T07:07:50;7.80;99.90
39079;DHT22;24829;49.208;12.080;2023-10-19T07:10:17;7.90;99.90
39079;DHT22;24829;49.208;12.080;2023-10-19T07:12:45;8.10;99.90
39079;DHT22;24829;49.208;12.080;2023-10-19T07:15:12;8.10;99.90
39079;DHT22;24829;49.208;12.080;2023-10-19T07:17:48;8.30;99.90
39079;DHT22;24829;49.208;12.080;2023-10-19T07:20:15;8.40;99.90
39079;DHT22;24829;49.208;12.080;2023-10-19T07:22:56;8.40;99.90
39079;DHT22;24829;49.208;12.080;2023-10-19T07:25:22;8.50;99.90
39079;DHT22;24829;49.208;12.080;2023-10-19T07:27:51;8.50;99.90
39079;DHT22;24829;49.208;12.080;2023-10-19T07:30:18;8.50;99.90
39079;DHT22;24829;49.208;12.080;2023-10-19T07:32:48;8.60;99.90
39079;DHT22;24829;49.208;12.080;2023-10-19T07:35:18;8.60;99.90
39079;DHT22;24829;49.208;12.080;2023-10-19T07:37:44;8.70;99.90
39079;DHT22;24829;49.208;12.080;2023-10-19T07:40:10;8.80;99.90
39079;DHT22;24829;49.208;12.080;2023-10-19T07:42:39;8.90;99.90
39079;DHT22;24829;49.208;12.080;2023-10-19T07:45:06;9.00;99.90
39079;DHT22;24829;49.208;12.080;2023-10-19T07:47:35;9.10;99.90
39079;DHT22;24829;49.208;12.080;2023-10-19T07:50:01;9.10;99.90
39079;DHT22;24829;49.208;12.080;2023-10-19T07:52:28;9.20;99.90
39079;DHT22;24829;49.208;12.080;2023-10-19T07:54:53;9.20;99.90
39079;DHT22;24829;49.208;12.080;2023-10-19T07:57:19;9.30;99.90
39079;DHT22;24829;49.208;12.080;2023-10-19T07:59:45;9.30;99.90
39079;DHT22;24829;49.208;12.080;2023-10-19T08:02:13;9.40;99.90
39079;DHT22;24829;49.208;12.080;2023-10-19T08:04:38;9.40;99.90
39079;DHT22;24829;49.208;12.080;2023-10-19T08:07:04;9.50;99.90
39079;DHT22;24829;49.208;12.080;2023-10-19T08:09:30;9.50;99.90
39079;DHT22;24829;49.208;12.080;2023-10-19T08:11:57;9.70;99.90
39079;DHT22;24829;49.208;12.080;2023-10-19T08:14:27;9.80;99.90
39079;DHT22;24829;49.208;12.080;2023-10-19T08:16:53;9.80;99.90
39079;DHT22;24829;49.208;12.080;2023-10-19T08:19:19;9.90;99.90
39079;DHT22;24829;49.208;12.080;2023-10-19T08:21:46;10.00;99.90
39079;DHT22;24829;49.208;12.080;2023-10-19T08:24:12;10.00;99.90
39079;DHT22;24829;49.208;12.080;2023-10-19T08:26:42;10.10;99.90
39079;DHT22;24829;49.208;12.080;2023-10-19T08:29:08;10.20;99.90
39079;DHT22;24829;49.208;12.080;2023-10-19T08:31:39;10.20;99.90
39079;DHT22;24829;49.208;12.080;2023-10-19T08:34:05;10.20;99.90
39079;DHT22;24829;49.208;12.080;2023-10-19T08:36:31;10.20;99.90
39079;DHT22;24829;49.208;12.080;2023-10-19T08:38:56;10.20;99.90
39079;DHT22;24829;49.208;12.080;2023-10-19T08:41:22;10.20;99.90
39079;DHT22;24829;49.208;12.080;2023-10-19T08:43:48;10.30;99.90
39079;DHT22;24829;49.208;12.080;2023-10-19T08:46:15;10.30;99.90
39079;DHT22;24829;49.208;12.080;2023-10-19T08:48:41;10.30;99.90
39079;DHT22;24829;49.208;12.080;2023-10-19T08:51:10;10.30;99.90
39079;DHT22;24829;49.208;12.080;2023-10-19T08:53:39;10.30;99.90
39079;DHT22;24829;49.208;12.080;2023-10-19T08:56:07;10.30;99.90
39079;DHT22;24829;49.208;12.080;2023-10-19T08:58:33;10.40;99.90
39079;DHT22;24829;49.208;12.080;2023-10-19T09:00:59;10.50;99.90
39079;DHT22;24829;49.208;12.080;2023-10-19T09:03:31;10.60;99.90
39079;DHT22;24829;49.208;12.080;2023-10-19T09:05:57;10.70;99.90
39079;DHT22;24829;49.208;12.080;2023-10-19T09:08:25;10.80;99.90
39079;DHT22;24829;49.208;12.080;2023-10-19T09:11:09;10.90;99.90
39079;DHT22;24829;49.208;12.080;2023-10-19T09:13:48;10.90;99.90
39079;DHT22;24829;49.208;12.080;2023-10-19T09:16:20;11.00;99.90
39079;DHT22;24829;49.208;12.080;2023-10-19T09:18:46;11.00;99.90
39079;DHT22;24829;49.208;12.080;2023-10-19T09:21:16;11.10;99.90
39079;DHT22;24829;49.208;12.080;2023-10-19T09:23:55;11.10;99.90
39079;DHT22;24829;49.208;12.080;2023-10-19T09:26:22;11.20;99.90
39079;DHT22;24829;49.208;12.080;2023-10-19T09:28:50;11.30;99.90
39079;DHT22;24829;49.208;12.080;2023-10-19T09:31:16;11.40;99.90
39079;DHT22;24829;49.208;12.080;2023-10-19T09:33:43;11.40;99.90
39079;DHT22;24829;49.208;12.080;2023-10-19T09:36:11;11.50;99.90
39079;DHT22;24829;49.208;12.080;2023-10-19T09:38:48;11.60;99.90
39079;DHT22;24829;49.208;12.080;2023-10-19T09:41:25;11.70;99.90
39079;DHT22;24829;49.208;12.080;2023-10-19T09:43:58;11.70;99.90
39079;DHT22;24829;49.208;12.080;2023-10-19T09:46:31;11.80;99.90
39079;DHT22;24829;49.208;12.080;2023-10-19T09:48:57;11.80;99.90
39079;DHT22;24829;49.208;12.080;2023-10-19T09:51:23;11.90;99.90
39079;DHT22;24829;49.208;12.080;2023-10-19T09:56:40;12.00;99.90
39079;DHT22;24829;49.208;12.080;2023-10-19T09:59:20;12.00;99.90
39079;DHT22;24829;49.208;12.080;2023-10-19T10:04:33;12.10;99.90
39079;DHT22;24829;49.208;12.080;2023-10-19T10:07:00;12.10;99.90
39079;DHT22;24829;49.208;12.080;2023-10-19T10:09:26;12.10;99.90
39079;DHT22;24829;49.208;12.080;2023-10-19T10:11:52;12.10;99.90
39079;DHT22;24829;49.208;12.080;2023-10-19T10:14:26;12.00;99.90
39079;DHT22;24829;49.208;12.080;2023-10-19T10:17:04;12.00;99.90
39079;DHT22;24829;49.208;12.080;2023-10-19T10:19:35;12.00;99.90
39079;DHT22;24829;49.208;12.080;2023-10-19T10:22:08;11.90;99.90
39079;DHT22;24829;49.208;12.080;2023-10-19T10:24:41;11.80;99.90
39079;DHT22;24829;49.208;12.080;2023-10-19T10:27:07;11.70;99.90
39079;DHT22;24829;49.208;12.080;2023-10-19T10:29:35;11.70;99.90
39079;DHT22;24829;49.208;12.080;2023-10-19T10:32:00;11.70;99.90
39079;DHT22;24829;49.208;12.080;2023-10-19T10:37:11;11.60;99.90
39079;DHT22;24829;49.208;12.080;2023-10-19T10:39:39;11.60;99.90
39079;DHT22;24829;49.208;12.080;2023-10-19T10:42:08;11.50;99.90
39079;DHT22;24829;49.208;12.080;2023-10-19T10:44:47;11.50;99.90
39079;DHT22;24829;49.208;12.080;2023-10-19T10:47:20;11.50;99.90
39079;DHT22;24829;49.208;12.080;2023-10-19T10:54:50;11.40;99.90
39079;DHT22;24829;49.208;12.080;2023-10-19T10:57:15;11.30;99.90
39079;DHT22;24829;49.208;12.080;2023-10-19T10:59:41;11.20;99.90
39079;DHT22;24829;49.208;12.080;2023-10-19T11:02:19;11.10;99.90
39079;DHT22;24829;49.208;12.080;2023-10-19T11:04:47;11.10;99.90
39079;DHT22;24829;49.208;12.080;2023-10-19T11:07:19;11.00;99.90
39079;DHT22;24829;49.208;12.080;2023-10-19T11:09:48;11.00;99.90
39079;DHT22;24829;49.208;12.080;2023-10-19T11:12:14;10.90;99.90
39079;DHT22;24829;49.208;12.080;2023-10-19T11:14:58;10.90;99.90
39079;DHT22;24829;49.208;12.080;2023-10-19T11:17:24;10.90;99.90
39079;DHT22;24829;49.208;12.080;2023-10-19T11:19:54;10.90;99.90
39079;DHT22;24829;49.208;12.080;2023-10-19T11:22:21;10.90;99.90
39079;DHT22;24829;49.208;12.080;2023-10-19T11:24:47;11.00;99.90
39079;DHT22;24829;49.208;12.080;2023-10-19T11:27:12;11.00;99.90
39079;DHT22;24829;49.208;12.080;2023-10-19T11:29:39;11.00;99.90
39079;DHT22;24829;49.208;12.080;2023-10-19T11:32:04;11.10;99.90
39079;DHT22;24829;49.208;12.080;2023-10-19T11:34:31;11.20;99.90
39079;DHT22;24829;49.208;12.080;2023-10-19T11:36:59;11.20;99.90
39079;DHT22;24829;49.208;12.080;2023-10-19T11:39:26;11.30;99.90
39079;DHT22;24829;49.208;12.080;2023-10-19T11:41:51;11.30;99.90
39079;DHT22;24829;49.208;12.080;2023-10-19T11:44:18;11.20;99.90
39079;DHT22;24829;49.208;12.080;2023-10-19T11:46:45;11.20;99.90
39079;DHT22;24829;49.208;12.080;2023-10-19T11:49:10;11.30;99.90
39079;DHT22;24829;49.208;12.080;2023-10-19T11:51:37;11.30;99.90
39079;DHT22;24829;49.208;12.080;2023-10-19T11:54:04;11.30;99.90
39079;DHT22;24829;49.208;12.080;2023-10-19T11:56:31;11.30;99.90
39079;DHT22;24829;49.208;12.080;2023-10-19T11:58:57;11.30;99.90
39079;DHT22;24829;49.208;12.080;2023-10-19T12:01:23;11.40;99.90
39079;DHT22;24829;49.208;12.080;2023-10-19T12:03:50;11.50;99.90
39079;DHT22;24829;49.208;12.080;2023-10-19T12:06:16;11.60;99.90
39079;DHT22;24829;49.208;12.080;2023-10-19T12:08:45;11.60;99.90
39079;DHT22;24829;49.208;12.080;2023-10-19T12:11:12;11.70;99.90
39079;DHT22;24829;49.208;12.080;2023-10-19T12:13:47;11.70;99.90
39079;DHT22;24829;49.208;12.080;2023-10-19T12:16:15;11.70;99.90
39079;DHT22;24829;49.208;12.080;2023-10-19T12:18:41;11.80;99.90
39079;DHT22;24829;49.208;12.080;2023-10-19T12:21:08;11.90;99.90
39079;DHT22;24829;49.208;12.080;2023-10-19T12:23:40;11.90;99.90
39079;DHT22;24829;49.208;12.080;2023-10-19T12:26:06;11.90;99.90
39079;DHT22;24829;49.208;12.080;2023-10-19T12:28:37;12.00;99.90
39079;DHT22;24829;49.208;12.080;2023-10-19T12:31:03;12.00;99.90
39079;DHT22;24829;49.208;12.080;2023-10-19T12:33:30;12.00;99.90
39079;DHT22;24829;49.208;12.080;2023-10-19T12:35:56;12.00;99.90
39079;DHT22;24829;49.208;12.080;2023-10-19T12:38:23;12.10;99.90
39079;DHT22;24829;49.208;12.080;2023-10-19T12:40:50;12.10;99.90
39079;DHT22;24829;49.208;12.080;2023-10-19T12:43:17;12.20;99.90
39079;DHT22;24829;49.208;12.080;2023-10-19T12:45:47;12.20;99.90
39079;DHT22;24829;49.208;12.080;2023-10-19T12:48:16;12.30;99.90
39079;DHT22;24829;49.208;12.080;2023-10-19T12:50:42;12.30;99.90
39079;DHT22;24829;49.208;12.080;2023-10-19T12:53:09;12.30;99.90
39079;DHT22;24829;49.208;12.080;2023-10-19T12:55:35;12.30;99.90
39079;DHT22;24829;49.208;12.080;2023-10-19T12:58:06;12.30;99.90
39079;DHT22;24829;49.208;12.080;2023-10-19T13:00:35;12.30;99.90
39079;DHT22;24829;49.208;12.080;2023-10-19T13:03:07;12.20;99.90
39079;DHT22;24829;49.208;12.080;2023-10-19T13:05:34;12.10;99.90
39079;DHT22;24829;49.208;12.080;2023-10-19T13:08:01;12.00;99.90
39079;DHT22;24829;49.208;12.080;2023-10-19T13:10:31;12.00;99.90
39079;DHT22;24829;49.208;12.080;2023-10-19T13:13:01;11.90;99.90
39079;DHT22;24829;49.208;12.080;2023-10-19T13:15:33;11.80;99.90
39079;DHT22;24829;49.208;12.080;2023-10-19T13:18:03;11.80;99.90
39079;DHT22;24829;49.208;12.080;2023-10-19T13:20:29;11.70;99.90
39079;DHT22;24829;49.208;12.080;2023-10-19T13:23:00;11.80;99.90
39079;DHT22;24829;49.208;12.080;2023-10-19T13:25:26;11.70;99.90
39079;DHT22;24829;49.208;12.080;2023-10-19T13:28:06;11.80;99.90
39079;DHT22;24829;49.208;12.080;2023-10-19T13:30:36;11.80;99.90
39079;DHT22;24829;49.208;12.080;2023-10-19T13:33:04;11.80;99.90
39079;DHT22;24829;49.208;12.080;2023-10-19T13:35:30;11.80;99.90
39079;DHT22;24829;49.208;12.080;2023-10-19T13:37:56;11.90;99.90
39079;DHT22;24829;49.208;12.080;2023-10-19T13:40:21;11.90;99.90
39079;DHT22;24829;49.208;12.080;2023-10-19T13:42:48;12.00;99.90
39079;DHT22;24829;49.208;12.080;2023-10-19T13:45:14;12.10;99.90
39079;DHT22;24829;49.208;12.080;2023-10-19T13:47:40;12.20;99.90
39079;DHT22;24829;49.208;12.080;2023-10-19T13:50:06;12.20;99.90
39079;DHT22;24829;49.208;12.080;2023-10-19T13:52:33;12.10;99.90
39079;DHT22;24829;49.208;12.080;2023-10-19T13:54:59;12.10;99.90
39079;DHT22;24829;49.208;12.080;2023-10-19T13:57:25;12.00;99.90
39079;DHT22;24829;49.208;12.080;2023-10-19T13:59:50;12.00;99.90
39079;DHT22;24829;49.208;12.080;2023-10-19T14:02:16;11.90;99.90
39079;DHT22;24829;49.208;12.080;2023-10-19T14:04:41;11.90;99.90
39079;DHT22;24829;49.208;12.080;2023-10-19T14:07:07;11.80;99.90
39079;DHT22;24829;49.208;12.080;2023-10-19T14:09:33;11.70;99.90
39079;DHT22;24829;49.208;12.080;2023-10-19T14:11:58;11.70;99.90
39079;DHT22;24829;49.208;12.080;2023-10-19T14:14:24;11.70;99.90
39079;DHT22;24829;49.208;12.080;2023-10-19T14:16:50;11.70;99.90
39079;DHT22;24829;49.208;12.080;2023-10-19T14:19:16;11.70;99.90
39079;DHT22;24829;49.208;12.080;2023-10-19T14:21:43;11.70;99.90
39079;DHT22;24829;49.208;12.080;2023-10-19T14:24:10;11.70;99.90
39079;DHT22;24829;49.208;12.080;2023-10-19T14:26:35;11.70;99.90
39079;DHT22;24829;49.208;12.080;2023-10-19T14:29:01;11.70;99.90
39079;DHT22;24829;49.208;12.080;2023-10-19T14:31:27;11.70;99.90
39079;DHT22;24829;49.208;12.080;2023-10-19T14:33:52;11.70;99.90
39079;DHT22;24829;49.208;12.080;2023-10-19T14:36:18;11.70;99.90
39079;DHT22;24829;49.208;12.080;2023-10-19T14:38:44;11.60;99.90
39079;DHT22;24829;49.208;12.080;2023-10-19T14:41:11;11.60;99.90
39079;DHT22;24829;49.208;12.080;2023-10-19T14:43:37;11.50;99.90
39079;DHT22;24829;49.208;12.080;2023-10-19T14:46:05;11.50;99.90
39079;DHT22;24829;49.208;12.080;2023-10-19T14:48:31;11.50;99.90
39079;DHT22;24829;49.208;12.080;2023-10-19T14:50:57;11.50;99.90
39079;DHT22;24829;49.208;12.080;2023-10-19T14:53:23;11.40;99.90
39079;DHT22;24829;49.208;12.080;2023-10-19T14:55:50;11.40;99.90
39079;DHT22;24829;49.208;12.080;2023-10-19T14:58:15;11.40;99.90
39079;DHT22;24829;49.208;12.080;2023-10-19T15:00:41;11.40;99.90
39079;DHT22;24829;49.208;12.080;2023-10-19T15:03:12;11.40;99.90
39079;DHT22;24829;49.208;12.080;2023-10-19T15:05:39;11.30;99.90
39079;DHT22;24829;49.208;12.080;2023-10-19T15:08:06;11.30;99.90
39079;DHT22;24829;49.208;12.080;2023-10-19T15:10:33;11.20;99.90
39079;DHT22;24829;49.208;12.080;2023-10-19T15:12:59;11.10;99.90
39079;DHT22;24829;49.208;12.080;2023-10-19T15:15:28;11.00;99.90
39079;DHT22;24829;49.208;12.080;2023-10-19T15:17:55;10.90;99.90
39079;DHT22;24829;49.208;12.080;2023-10-19T15:20:24;10.90;99.90
39079;DHT22;24829;49.208;12.080;2023-10-19T15:22:50;10.80;99.90
39079;DHT22;24829;49.208;12.080;2023-10-19T15:25:16;10.80;99.90
39079;DHT22;24829;49.208;12.080;2023-10-19T15:27:45;10.80;99.90
39079;DHT22;24829;49.208;12.080;2023-10-19T15:30:12;10.80;99.90
39079;DHT22;24829;49.208;12.080;2023-10-19T15:32:38;10.90;99.90
39079;DHT22;24829;49.208;12.080;2023-10-19T15:35:10;10.90;99.90
39079;DHT22;24829;49.208;12.080;2023-10-19T15:37:37;11.00;99.90
39079;DHT22;24829;49.208;12.080;2023-10-19T15:40:03;11.00;99.90
39079;DHT22;24829;49.208;12.080;2023-10-19T15:42:29;10.90;99.90
39079;DHT22;24829;49.208;12.080;2023-10-19T15:44:55;11.00;99.90
39079;DHT22;24829;49.208;12.080;2023-10-19T15:47:22;11.00;99.90
39079;DHT22;24829;49.208;12.080;2023-10-19T15:49:53;10.90;99.90